sensor_id;sensor_type;location;lat;lon;timestamp;P1;durP1;ratioP1;P2;durP2;ratioP2
41799;SDS011;27468;47.460;19.034;2023-03-12T00:02:19;4.23;;;2.50;;
41799;SDS011;27468;47.460;19.034;2023-03-12T00:04:45;3.03;;;1.80;;
41799;SDS011;27468;47.460;19.034;2023-03-12T00:07:11;3.80;;;2.40;;
41799;SDS011;27468;47.460;19.034;2023-03-12T00:09:37;3.83;;;2.07;;
41799;SDS011;27468;47.460;19.034;2023-03-12T00:12:03;4.37;;;2.50;;
41799;SDS011;27468;47.460;19.034;2023-03-12T00:14:30;4.50;;;2.40;;
41799;SDS011;27468;47.460;19.034;2023-03-12T00:16:55;3.30;;;2.73;;
41799;SDS011;27468;47.460;19.034;2023-03-12T00:19:21;2.97;;;2.10;;
41799;SDS011;27468;47.460;19.034;2023-03-12T00:21:47;3.80;;;2.37;;
41799;SDS011;27468;47.460;19.034;2023-03-12T00:24:12;3.03;;;2.20;;
41799;SDS011;27468;47.460;19.034;2023-03-12T00:26:38;4.10;;;2.20;;
41799;SDS011;27468;47.460;19.034;2023-03-12T00:29:04;3.17;;;1.93;;
41799;SDS011;27468;47.460;19.034;2023-03-12T00:31:30;1.87;;;1.27;;
41799;SDS011;27468;47.460;19.034;2023-03-12T00:33:59;4.00;;;2.43;;
41799;SDS011;27468;47.460;19.034;2023-03-12T00:36:27;3.13;;;1.93;;
41799;SDS011;27468;47.460;19.034;2023-03-12T00:38:54;3.80;;;2.53;;
41799;SDS011;27468;47.460;19.034;2023-03-12T00:41:21;3.93;;;2.57;;
41799;SDS011;27468;47.460;19.034;2023-03-12T00:43:48;3.23;;;2.00;;
41799;SDS011;27468;47.460;19.034;2023-03-12T00:46:14;3.40;;;2.20;;
41799;SDS011;27468;47.460;19.034;2023-03-12T00:48:40;3.10;;;2.10;;
41799;SDS011;27468;47.460;19.034;2023-03-12T00:51:06;1.87;;;1.37;;
41799;SDS011;27468;47.460;19.034;2023-03-12T00:53:31;3.33;;;2.33;;
41799;SDS011;27468;47.460;19.034;2023-03-12T00:55:57;2.87;;;1.70;;
41799;SDS011;27468;47.460;19.034;2023-03-12T00:58:23;3.43;;;2.20;;
41799;SDS011;27468;47.460;19.034;2023-03-12T01:00:48;5.13;;;2.10;;
41799;SDS011;27468;47.460;19.034;2023-03-12T01:03:14;3.13;;;2.30;;
41799;SDS011;27468;47.460;19.034;2023-03-12T01:05:39;3.97;;;2.20;;
41799;SDS011;27468;47.460;19.034;2023-03-12T01:08:06;3.40;;;2.10;;
41799;SDS011;27468;47.460;19.034;2023-03-12T01:10:33;3.67;;;2.40;;
41799;SDS011;27468;47.460;19.034;2023-03-12T01:12:59;2.97;;;2.07;;
41799;SDS011;27468;47.460;19.034;2023-03-12T01:15:25;2.50;;;1.97;;
41799;SDS011;27468;47.460;19.034;2023-03-12T01:17:51;2.97;;;2.10;;
41799;SDS011;27468;47.460;19.034;2023-03-12T01:20:16;2.90;;;1.90;;
41799;SDS011;27468;47.460;19.034;2023-03-12T01:22:42;4.27;;;1.93;;
41799;SDS011;27468;47.460;19.034;2023-03-12T01:25:08;2.87;;;1.97;;
41799;SDS011;27468;47.460;19.034;2023-03-12T01:27:34;2.77;;;2.00;;
41799;SDS011;27468;47.460;19.034;2023-03-12T01:30:00;3.90;;;2.17;;
41799;SDS011;27468;47.460;19.034;2023-03-12T01:32:25;4.33;;;2.00;;
41799;SDS011;27468;47.460;19.034;2023-03-12T01:34:51;3.37;;;2.30;;
41799;SDS011;27468;47.460;19.034;2023-03-12T01:37:16;3.40;;;2.20;;
41799;SDS011;27468;47.460;19.034;2023-03-12T01:39:41;2.93;;;2.20;;
41799;SDS011;27468;47.460;19.034;2023-03-12T01:42:07;4.00;;;2.23;;
41799;SDS011;27468;47.460;19.034;2023-03-12T01:44:49;2.90;;;1.87;;
41799;SDS011;27468;47.460;19.034;2023-03-12T01:47:22;3.23;;;2.20;;
41799;SDS011;27468;47.460;19.034;2023-03-12T01:49:48;3.07;;;2.17;;
41799;SDS011;27468;47.460;19.034;2023-03-12T01:52:16;3.67;;;2.00;;
41799;SDS011;27468;47.460;19.034;2023-03-12T01:55:08;3.20;;;2.00;;
41799;SDS011;27468;47.460;19.034;2023-03-12T02:00:30;3.17;;;1.90;;
41799;SDS011;27468;47.460;19.034;2023-03-12T02:03:00;4.10;;;2.30;;
41799;SDS011;27468;47.460;19.034;2023-03-12T02:08:19;3.77;;;2.10;;
41799;SDS011;27468;47.460;19.034;2023-03-12T02:10:47;5.47;;;2.53;;
41799;SDS011;27468;47.460;19.034;2023-03-12T02:13:13;3.63;;;2.40;;
41799;SDS011;27468;47.460;19.034;2023-03-12T02:15:39;3.50;;;2.10;;
41799;SDS011;27468;47.460;19.034;2023-03-12T02:18:05;3.10;;;1.93;;
41799;SDS011;27468;47.460;19.034;2023-03-12T02:20:38;3.20;;;2.33;;
41799;SDS011;27468;47.460;19.034;2023-03-12T02:23:12;3.87;;;2.70;;
41799;SDS011;27468;47.460;19.034;2023-03-12T02:25:45;3.47;;;2.30;;
41799;SDS011;27468;47.460;19.034;2023-03-12T02:28:14;3.00;;;2.17;;
41799;SDS011;27468;47.460;19.034;2023-03-12T02:30:43;3.47;;;2.47;;
41799;SDS011;27468;47.460;19.034;2023-03-12T02:33:11;3.87;;;2.60;;
41799;SDS011;27468;47.460;19.034;2023-03-12T02:35:37;4.80;;;2.57;;
41799;SDS011;27468;47.460;19.034;2023-03-12T02:38:22;3.60;;;2.63;;
41799;SDS011;27468;47.460;19.034;2023-03-12T02:40:51;3.53;;;2.40;;
41799;SDS011;27468;47.460;19.034;2023-03-12T02:43:19;3.90;;;2.83;;
41799;SDS011;27468;47.460;19.034;2023-03-12T02:45:46;4.73;;;2.33;;
41799;SDS011;27468;47.460;19.034;2023-03-12T02:48:12;4.63;;;2.60;;
41799;SDS011;27468;47.460;19.034;2023-03-12T02:50:37;4.40;;;2.70;;
41799;SDS011;27468;47.460;19.034;2023-03-12T02:53:03;3.93;;;2.73;;
41799;SDS011;27468;47.460;19.034;2023-03-12T02:55:29;3.23;;;2.53;;
41799;SDS011;27468;47.460;19.034;2023-03-12T02:57:54;5.93;;;3.57;;
41799;SDS011;27468;47.460;19.034;2023-03-12T03:00:19;4.63;;;2.90;;
41799;SDS011;27468;47.460;19.034;2023-03-12T03:02:45;3.57;;;2.83;;
41799;SDS011;27468;47.460;19.034;2023-03-12T03:05:11;3.93;;;2.40;;
41799;SDS011;27468;47.460;19.034;2023-03-12T03:07:36;4.53;;;3.00;;
41799;SDS011;27468;47.460;19.034;2023-03-12T03:10:02;6.13;;;3.87;;
41799;SDS011;27468;47.460;19.034;2023-03-12T03:12:29;5.17;;;3.23;;
41799;SDS011;27468;47.460;19.034;2023-03-12T03:14:55;5.73;;;3.23;;
41799;SDS011;27468;47.460;19.034;2023-03-12T03:17:21;5.60;;;3.67;;
41799;SDS011;27468;47.460;19.034;2023-03-12T03:19:48;6.70;;;3.60;;
41799;SDS011;27468;47.460;19.034;2023-03-12T03:22:14;5.37;;;3.43;;
41799;SDS011;27468;47.460;19.034;2023-03-12T03:24:39;5.50;;;3.33;;
41799;SDS011;27468;47.460;19.034;2023-03-12T03:27:05;5.70;;;3.83;;
41799;SDS011;27468;47.460;19.034;2023-03-12T03:29:30;6.80;;;3.57;;
41799;SDS011;27468;47.460;19.034;2023-03-12T03:31:56;5.47;;;3.23;;
41799;SDS011;27468;47.460;19.034;2023-03-12T03:34:21;5.40;;;3.77;;
41799;SDS011;27468;47.460;19.034;2023-03-12T03:36:47;6.23;;;3.80;;
41799;SDS011;27468;47.460;19.034;2023-03-12T03:39:12;5.13;;;3.07;;
41799;SDS011;27468;47.460;19.034;2023-03-12T03:41:38;5.23;;;3.53;;
41799;SDS011;27468;47.460;19.034;2023-03-12T03:44:03;5.20;;;3.30;;
41799;SDS011;27468;47.460;19.034;2023-03-12T03:46:29;6.23;;;3.47;;
41799;SDS011;27468;47.460;19.034;2023-03-12T03:48:55;6.63;;;3.63;;
41799;SDS011;27468;47.460;19.034;2023-03-12T03:51:21;6.53;;;3.30;;
41799;SDS011;27468;47.460;19.034;2023-03-12T03:53:47;5.00;;;2.93;;
41799;SDS011;27468;47.460;19.034;2023-03-12T03:56:14;6.50;;;3.17;;
41799;SDS011;27468;47.460;19.034;2023-03-12T03:58:40;5.27;;;3.00;;
41799;SDS011;27468;47.460;19.034;2023-03-12T04:01:05;4.87;;;3.53;;
41799;SDS011;27468;47.460;19.034;2023-03-12T04:03:31;4.80;;;3.10;;
41799;SDS011;27468;47.460;19.034;2023-03-12T04:05:58;4.00;;;3.00;;
41799;SDS011;27468;47.460;19.034;2023-03-12T04:08:25;5.73;;;3.30;;
41799;SDS011;27468;47.460;19.034;2023-03-12T04:10:51;5.77;;;3.73;;
41799;SDS011;27468;47.460;19.034;2023-03-12T04:13:17;5.57;;;3.60;;
41799;SDS011;27468;47.460;19.034;2023-03-12T04:15:48;7.60;;;4.40;;
41799;SDS011;27468;47.460;19.034;2023-03-12T04:18:16;6.13;;;3.77;;
41799;SDS011;27468;47.460;19.034;2023-03-12T04:20:42;7.70;;;4.33;;
41799;SDS011;27468;47.460;19.034;2023-03-12T04:23:08;7.47;;;4.10;;
41799;SDS011;27468;47.460;19.034;2023-03-12T04:25:34;7.80;;;4.53;;
41799;SDS011;27468;47.460;19.034;2023-03-12T04:27:59;6.90;;;4.37;;
41799;SDS011;27468;47.460;19.034;2023-03-12T04:30:25;6.80;;;4.47;;
41799;SDS011;27468;47.460;19.034;2023-03-12T04:32:51;7.43;;;4.30;;
41799;SDS011;27468;47.460;19.034;2023-03-12T04:35:17;7.17;;;4.37;;
41799;SDS011;27468;47.460;19.034;2023-03-12T04:37:43;8.33;;;4.83;;
41799;SDS011;27468;47.460;19.034;2023-03-12T04:40:08;9.43;;;5.50;;
41799;SDS011;27468;47.460;19.034;2023-03-12T04:42:35;8.47;;;4.97;;
41799;SDS011;27468;47.460;19.034;2023-03-12T04:45:02;9.57;;;5.33;;
41799;SDS011;27468;47.460;19.034;2023-03-12T04:47:30;10.43;;;5.03;;
41799;SDS011;27468;47.460;19.034;2023-03-12T04:49:56;9.47;;;5.50;;
41799;SDS011;27468;47.460;19.034;2023-03-12T04:52:22;10.67;;;5.40;;
41799;SDS011;27468;47.460;19.034;2023-03-12T04:54:47;9.37;;;5.47;;
41799;SDS011;27468;47.460;19.034;2023-03-12T04:57:13;11.37;;;6.50;;
41799;SDS011;27468;47.460;19.034;2023-03-12T04:59:38;12.10;;;5.90;;
41799;SDS011;27468;47.460;19.034;2023-03-12T05:02:04;9.87;;;5.80;;
41799;SDS011;27468;47.460;19.034;2023-03-12T05:04:29;10.57;;;6.10;;
41799;SDS011;27468;47.460;19.034;2023-03-12T05:06:55;11.40;;;5.90;;
41799;SDS011;27468;47.460;19.034;2023-03-12T05:09:20;8.73;;;5.10;;
41799;SDS011;27468;47.460;19.034;2023-03-12T05:11:46;10.07;;;5.70;;
41799;SDS011;27468;47.460;19.034;2023-03-12T05:14:11;10.60;;;6.40;;
41799;SDS011;27468;47.460;19.034;2023-03-12T05:16:37;9.30;;;5.93;;
41799;SDS011;27468;47.460;19.034;2023-03-12T05:19:02;9.40;;;5.40;;
41799;SDS011;27468;47.460;19.034;2023-03-12T05:21:28;10.93;;;5.63;;
41799;SDS011;27468;47.460;19.034;2023-03-12T05:23:54;9.30;;;6.07;;
41799;SDS011;27468;47.460;19.034;2023-03-12T05:26:30;10.33;;;5.50;;
41799;SDS011;27468;47.460;19.034;2023-03-12T05:28:57;10.33;;;5.63;;
41799;SDS011;27468;47.460;19.034;2023-03-12T05:31:26;10.77;;;5.63;;
41799;SDS011;27468;47.460;19.034;2023-03-12T05:33:56;11.63;;;5.27;;
41799;SDS011;27468;47.460;19.034;2023-03-12T05:36:22;8.07;;;4.63;;
41799;SDS011;27468;47.460;19.034;2023-03-12T05:38:48;9.97;;;5.37;;
41799;SDS011;27468;47.460;19.034;2023-03-12T05:41:20;9.03;;;5.20;;
41799;SDS011;27468;47.460;19.034;2023-03-12T05:43:55;11.00;;;6.07;;
41799;SDS011;27468;47.460;19.034;2023-03-12T05:46:22;6.57;;;3.70;;
41799;SDS011;27468;47.460;19.034;2023-03-12T05:48:49;5.60;;;3.43;;
41799;SDS011;27468;47.460;19.034;2023-03-12T05:51:14;7.60;;;5.07;;
41799;SDS011;27468;47.460;19.034;2023-03-12T05:53:40;8.83;;;4.60;;
41799;SDS011;27468;47.460;19.034;2023-03-12T05:56:07;9.70;;;5.13;;
41799;SDS011;27468;47.460;19.034;2023-03-12T05:58:35;6.00;;;3.30;;
41799;SDS011;27468;47.460;19.034;2023-03-12T06:01:02;8.50;;;5.40;;
41799;SDS011;27468;47.460;19.034;2023-03-12T06:06:00;6.37;;;4.60;;
41799;SDS011;27468;47.460;19.034;2023-03-12T06:08:25;6.10;;;4.20;;
41799;SDS011;27468;47.460;19.034;2023-03-12T06:10:50;7.13;;;4.20;;
41799;SDS011;27468;47.460;19.034;2023-03-12T06:13:18;8.77;;;4.60;;
41799;SDS011;27468;47.460;19.034;2023-03-12T06:15:45;6.63;;;3.63;;
41799;SDS011;27468;47.460;19.034;2023-03-12T06:18:10;6.13;;;3.80;;
41799;SDS011;27468;47.460;19.034;2023-03-12T06:20:36;6.30;;;3.43;;
41799;SDS011;27468;47.460;19.034;2023-03-12T06:23:01;7.17;;;4.10;;
41799;SDS011;27468;47.460;19.034;2023-03-12T06:25:26;5.97;;;4.07;;
41799;SDS011;27468;47.460;19.034;2023-03-12T06:27:52;8.03;;;4.17;;
41799;SDS011;27468;47.460;19.034;2023-03-12T06:30:17;6.97;;;4.37;;
41799;SDS011;27468;47.460;19.034;2023-03-12T06:32:43;6.50;;;4.00;;
41799;SDS011;27468;47.460;19.034;2023-03-12T06:35:08;5.43;;;3.73;;
41799;SDS011;27468;47.460;19.034;2023-03-12T06:37:34;6.27;;;4.40;;
41799;SDS011;27468;47.460;19.034;2023-03-12T06:39:59;6.70;;;4.00;;
41799;SDS011;27468;47.460;19.034;2023-03-12T06:42:25;5.90;;;3.70;;
41799;SDS011;27468;47.460;19.034;2023-03-12T06:44:50;6.13;;;3.83;;
41799;SDS011;27468;47.460;19.034;2023-03-12T06:47:16;7.57;;;4.20;;
41799;SDS011;27468;47.460;19.034;2023-03-12T06:49:42;7.50;;;3.90;;
41799;SDS011;27468;47.460;19.034;2023-03-12T06:52:07;6.70;;;4.40;;
41799;SDS011;27468;47.460;19.034;2023-03-12T06:54:33;7.07;;;4.43;;
41799;SDS011;27468;47.460;19.034;2023-03-12T06:56:58;7.80;;;4.73;;
41799;SDS011;27468;47.460;19.034;2023-03-12T06:59:24;5.67;;;3.03;;
41799;SDS011;27468;47.460;19.034;2023-03-12T07:01:50;6.87;;;3.83;;
41799;SDS011;27468;47.460;19.034;2023-03-12T07:04:16;6.40;;;3.93;;
41799;SDS011;27468;47.460;19.034;2023-03-12T07:06:42;5.07;;;3.03;;
41799;SDS011;27468;47.460;19.034;2023-03-12T07:09:07;8.20;;;4.43;;
41799;SDS011;27468;47.460;19.034;2023-03-12T07:11:33;5.73;;;3.60;;
41799;SDS011;27468;47.460;19.034;2023-03-12T07:13:59;7.77;;;4.93;;
41799;SDS011;27468;47.460;19.034;2023-03-12T07:16:25;7.00;;;4.43;;
41799;SDS011;27468;47.460;19.034;2023-03-12T07:18:51;5.43;;;3.57;;
41799;SDS011;27468;47.460;19.034;2023-03-12T07:21:16;8.07;;;4.77;;
41799;SDS011;27468;47.460;19.034;2023-03-12T07:23:47;7.23;;;3.67;;
41799;SDS011;27468;47.460;19.034;2023-03-12T07:26:13;6.33;;;4.13;;
41799;SDS011;27468;47.460;19.034;2023-03-12T07:28:39;5.80;;;3.83;;
41799;SDS011;27468;47.460;19.034;2023-03-12T07:31:05;5.83;;;3.90;;
41799;SDS011;27468;47.460;19.034;2023-03-12T07:33:31;7.47;;;4.30;;
41799;SDS011;27468;47.460;19.034;2023-03-12T07:35:56;6.37;;;3.50;;
41799;SDS011;27468;47.460;19.034;2023-03-12T07:38:22;7.57;;;4.60;;
41799;SDS011;27468;47.460;19.034;2023-03-12T07:40:51;3.73;;;2.30;;
41799;SDS011;27468;47.460;19.034;2023-03-12T07:43:17;4.47;;;2.53;;
41799;SDS011;27468;47.460;19.034;2023-03-12T07:45:43;5.07;;;3.57;;
41799;SDS011;27468;47.460;19.034;2023-03-12T07:48:08;5.37;;;2.90;;
41799;SDS011;27468;47.460;19.034;2023-03-12T07:50:34;5.80;;;3.67;;
41799;SDS011;27468;47.460;19.034;2023-03-12T07:53:00;5.73;;;3.57;;
41799;SDS011;27468;47.460;19.034;2023-03-12T07:55:25;7.23;;;4.30;;
41799;SDS011;27468;47.460;19.034;2023-03-12T07:57:51;6.77;;;4.57;;
41799;SDS011;27468;47.460;19.034;2023-03-12T08:00:17;6.17;;;3.53;;
41799;SDS011;27468;47.460;19.034;2023-03-12T08:02:43;5.87;;;3.57;;
41799;SDS011;27468;47.460;19.034;2023-03-12T08:05:09;5.63;;;3.13;;
41799;SDS011;27468;47.460;19.034;2023-03-12T08:07:34;7.27;;;4.40;;
41799;SDS011;27468;47.460;19.034;2023-03-12T08:10:00;6.37;;;4.50;;
41799;SDS011;27468;47.460;19.034;2023-03-12T08:12:27;6.43;;;4.37;;
41799;SDS011;27468;47.460;19.034;2023-03-12T08:14:52;7.13;;;4.47;;
41799;SDS011;27468;47.460;19.034;2023-03-12T08:17:18;5.60;;;3.53;;
41799;SDS011;27468;47.460;19.034;2023-03-12T08:19:44;5.30;;;3.27;;
41799;SDS011;27468;47.460;19.034;2023-03-12T08:22:10;5.90;;;3.77;;
41799;SDS011;27468;47.460;19.034;2023-03-12T08:24:35;5.20;;;3.53;;
41799;SDS011;27468;47.460;19.034;2023-03-12T08:27:01;4.50;;;3.03;;
41799;SDS011;27468;47.460;19.034;2023-03-12T08:29:26;5.15;;;2.75;;
41799;SDS011;27468;47.460;19.034;2023-03-12T08:31:52;5.73;;;2.43;;
41799;SDS011;27468;47.460;19.034;2023-03-12T08:34:19;5.10;;;3.00;;
41799;SDS011;27468;47.460;19.034;2023-03-12T08:36:44;4.20;;;2.13;;
41799;SDS011;27468;47.460;19.034;2023-03-12T08:39:10;4.25;;;2.60;;
41799;SDS011;27468;47.460;19.034;2023-03-12T08:41:35;4.93;;;3.47;;
41799;SDS011;27468;47.460;19.034;2023-03-12T08:44:00;4.45;;;2.65;;
41799;SDS011;27468;47.460;19.034;2023-03-12T08:46:26;4.47;;;2.60;;
41799;SDS011;27468;47.460;19.034;2023-03-12T08:48:51;4.88;;;2.92;;
41799;SDS011;27468;47.460;19.034;2023-03-12T08:51:17;4.43;;;3.00;;
41799;SDS011;27468;47.460;19.034;2023-03-12T08:53:42;5.63;;;3.00;;
41799;SDS011;27468;47.460;19.034;2023-03-12T08:56:09;4.13;;;2.88;;
41799;SDS011;27468;47.460;19.034;2023-03-12T08:58:34;5.53;;;3.08;;
41799;SDS011;27468;47.460;19.034;2023-03-12T09:01:00;6.10;;;3.40;;
41799;SDS011;27468;47.460;19.034;2023-03-12T09:03:26;4.97;;;3.20;;
41799;SDS011;27468;47.460;19.034;2023-03-12T09:06:00;5.78;;;3.40;;
41799;SDS011;27468;47.460;19.034;2023-03-12T09:08:31;4.57;;;3.00;;
41799;SDS011;27468;47.460;19.034;2023-03-12T09:10:58;5.63;;;3.70;;
41799;SDS011;27468;47.460;19.034;2023-03-12T09:13:24;4.85;;;3.25;;
41799;SDS011;27468;47.460;19.034;2023-03-12T09:15:50;5.72;;;4.05;;
41799;SDS011;27468;47.460;19.034;2023-03-12T09:18:15;5.18;;;3.30;;
41799;SDS011;27468;47.460;19.034;2023-03-12T09:20:41;4.47;;;3.20;;
41799;SDS011;27468;47.460;19.034;2023-03-12T09:23:07;5.35;;;3.20;;
41799;SDS011;27468;47.460;19.034;2023-03-12T09:25:32;6.43;;;4.03;;
41799;SDS011;27468;47.460;19.034;2023-03-12T09:27:57;5.03;;;3.33;;
41799;SDS011;27468;47.460;19.034;2023-03-12T09:30:23;5.97;;;3.80;;
41799;SDS011;27468;47.460;19.034;2023-03-12T09:32:50;6.32;;;4.22;;
41799;SDS011;27468;47.460;19.034;2023-03-12T09:35:16;5.63;;;3.88;;
41799;SDS011;27468;47.460;19.034;2023-03-12T09:37:41;5.70;;;3.67;;
41799;SDS011;27468;47.460;19.034;2023-03-12T09:40:07;5.43;;;3.30;;
41799;SDS011;27468;47.460;19.034;2023-03-12T09:42:45;5.57;;;3.50;;
41799;SDS011;27468;47.460;19.034;2023-03-12T09:45:16;6.55;;;4.05;;
41799;SDS011;27468;47.460;19.034;2023-03-12T09:47:46;6.65;;;4.13;;
41799;SDS011;27468;47.460;19.034;2023-03-12T09:52:50;5.40;;;3.97;;
41799;SDS011;27468;47.460;19.034;2023-03-12T09:55:22;6.38;;;4.20;;
41799;SDS011;27468;47.460;19.034;2023-03-12T09:57:49;6.13;;;4.15;;
41799;SDS011;27468;47.460;19.034;2023-03-12T10:00:17;5.60;;;3.50;;
41799;SDS011;27468;47.460;19.034;2023-03-12T10:07:57;5.93;;;3.70;;
41799;SDS011;27468;47.460;19.034;2023-03-12T10:13:20;4.38;;;3.35;;
41799;SDS011;27468;47.460;19.034;2023-03-12T10:16:10;5.57;;;3.45;;
41799;SDS011;27468;47.460;19.034;2023-03-12T10:27:08;5.07;;;3.20;;
41799;SDS011;27468;47.460;19.034;2023-03-12T10:29:38;4.05;;;2.90;;
41799;SDS011;27468;47.460;19.034;2023-03-12T10:40:29;5.25;;;3.00;;
41799;SDS011;27468;47.460;19.034;2023-03-12T10:42:58;5.10;;;3.50;;
41799;SDS011;27468;47.460;19.034;2023-03-12T10:48:03;7.60;;;4.07;;
41799;SDS011;27468;47.460;19.034;2023-03-12T10:50:33;5.25;;;3.53;;
41799;SDS011;27468;47.460;19.034;2023-03-12T10:55:56;4.80;;;3.20;;
41799;SDS011;27468;47.460;19.034;2023-03-12T10:58:24;5.05;;;3.20;;
41799;SDS011;27468;47.460;19.034;2023-03-12T11:00:55;4.78;;;3.53;;
41799;SDS011;27468;47.460;19.034;2023-03-12T11:03:22;4.97;;;3.53;;
41799;SDS011;27468;47.460;19.034;2023-03-12T11:05:48;6.00;;;3.22;;
41799;SDS011;27468;47.460;19.034;2023-03-12T11:08:33;4.60;;;3.05;;
41799;SDS011;27468;47.460;19.034;2023-03-12T11:11:01;3.63;;;2.67;;
41799;SDS011;27468;47.460;19.034;2023-03-12T11:16:40;3.33;;;2.38;;
41799;SDS011;27468;47.460;19.034;2023-03-12T11:21:20;3.42;;;2.67;;
41799;SDS011;27468;47.460;19.034;2023-03-12T11:24:08;2.58;;;1.92;;
41799;SDS011;27468;47.460;19.034;2023-03-12T11:26:38;3.75;;;2.20;;
41799;SDS011;27468;47.460;19.034;2023-03-12T11:29:13;5.10;;;2.97;;
41799;SDS011;27468;47.460;19.034;2023-03-12T11:31:47;3.03;;;1.85;;
41799;SDS011;27468;47.460;19.034;2023-03-12T11:34:28;2.58;;;1.90;;
41799;SDS011;27468;47.460;19.034;2023-03-12T11:37:06;3.10;;;1.67;;
41799;SDS011;27468;47.460;19.034;2023-03-12T11:39:45;2.25;;;1.60;;
41799;SDS011;27468;47.460;19.034;2023-03-12T11:45:03;2.50;;;1.70;;
41799;SDS011;27468;47.460;19.034;2023-03-12T11:52:47;2.80;;;1.80;;
41799;SDS011;27468;47.460;19.034;2023-03-12T11:55:26;2.83;;;1.58;;
41799;SDS011;27468;47.460;19.034;2023-03-12T12:03:31;2.17;;;1.60;;
41799;SDS011;27468;47.460;19.034;2023-03-12T12:09:09;4.40;;;1.88;;
41799;SDS011;27468;47.460;19.034;2023-03-12T12:17:19;4.57;;;1.88;;
41799;SDS011;27468;47.460;19.034;2023-03-12T12:19:56;2.92;;;1.98;;
41799;SDS011;27468;47.460;19.034;2023-03-12T12:25:27;2.20;;;1.30;;
41799;SDS011;27468;47.460;19.034;2023-03-12T12:33:35;2.67;;;1.60;;
41799;SDS011;27468;47.460;19.034;2023-03-12T12:36:08;1.52;;;1.25;;
41799;SDS011;27468;47.460;19.034;2023-03-12T12:38:41;2.72;;;1.60;;
41799;SDS011;27468;47.460;19.034;2023-03-12T12:41:18;1.98;;;1.40;;
41799;SDS011;27468;47.460;19.034;2023-03-12T12:44:01;1.52;;;1.10;;
41799;SDS011;27468;47.460;19.034;2023-03-12T12:48:59;1.58;;;1.25;;
41799;SDS011;27468;47.460;19.034;2023-03-12T12:51:44;1.95;;;1.15;;
41799;SDS011;27468;47.460;19.034;2023-03-12T13:02:59;1.95;;;1.20;;
41799;SDS011;27468;47.460;19.034;2023-03-12T13:16:35;1.40;;;1.20;;
41799;SDS011;27468;47.460;19.034;2023-03-12T13:27:43;1.55;;;1.40;;
41799;SDS011;27468;47.460;19.034;2023-03-12T13:30:26;1.75;;;0.80;;
41799;SDS011;27468;47.460;19.034;2023-03-12T13:35:36;1.35;;;0.90;;
41799;SDS011;27468;47.460;19.034;2023-03-12T13:38:33;1.60;;;1.10;;
41799;SDS011;27468;47.460;19.034;2023-03-12T13:41:12;1.52;;;1.17;;
41799;SDS011;27468;47.460;19.034;2023-03-12T13:43:55;1.27;;;0.95;;
41799;SDS011;27468;47.460;19.034;2023-03-12T13:46:26;2.80;;;1.20;;
41799;SDS011;27468;47.460;19.034;2023-03-12T13:48:52;1.73;;;1.20;;
41799;SDS011;27468;47.460;19.034;2023-03-12T13:51:23;2.70;;;1.48;;
41799;SDS011;27468;47.460;19.034;2023-03-12T13:53:54;2.75;;;1.38;;
41799;SDS011;27468;47.460;19.034;2023-03-12T13:56:30;1.38;;;0.95;;
41799;SDS011;27468;47.460;19.034;2023-03-12T13:59:01;1.20;;;1.00;;
41799;SDS011;27468;47.460;19.034;2023-03-12T14:01:30;1.30;;;1.00;;
41799;SDS011;27468;47.460;19.034;2023-03-12T14:04:05;1.42;;;1.10;;
41799;SDS011;27468;47.460;19.034;2023-03-12T14:09:57;1.80;;;0.90;;
41799;SDS011;27468;47.460;19.034;2023-03-12T14:13:23;2.30;;;1.42;;
41799;SDS011;27468;47.460;19.034;2023-03-12T14:15:40;2.00;;;1.33;;
41799;SDS011;27468;47.460;19.034;2023-03-12T14:18:25;1.90;;;1.10;;
41799;SDS011;27468;47.460;19.034;2023-03-12T14:20:55;1.95;;;1.15;;
41799;SDS011;27468;47.460;19.034;2023-03-12T14:23:24;1.83;;;1.27;;
41799;SDS011;27468;47.460;19.034;2023-03-12T14:25:56;2.90;;;1.40;;
41799;SDS011;27468;47.460;19.034;2023-03-12T14:28:23;1.63;;;1.20;;
41799;SDS011;27468;47.460;19.034;2023-03-12T14:33:55;1.85;;;1.30;;
41799;SDS011;27468;47.460;19.034;2023-03-12T14:36:26;3.20;;;2.15;;
41799;SDS011;27468;47.460;19.034;2023-03-12T14:38:59;2.63;;;1.70;;
41799;SDS011;27468;47.460;19.034;2023-03-12T14:41:34;2.00;;;1.73;;
41799;SDS011;27468;47.460;19.034;2023-03-12T14:44:19;2.90;;;1.85;;
41799;SDS011;27468;47.460;19.034;2023-03-12T14:46:57;2.40;;;1.50;;
41799;SDS011;27468;47.460;19.034;2023-03-12T14:49:25;2.42;;;1.58;;
41799;SDS011;27468;47.460;19.034;2023-03-12T14:51:51;3.58;;;1.70;;
41799;SDS011;27468;47.460;19.034;2023-03-12T14:54:17;2.25;;;1.60;;
41799;SDS011;27468;47.460;19.034;2023-03-12T14:56:44;2.33;;;1.50;;
41799;SDS011;27468;47.460;19.034;2023-03-12T14:59:43;2.55;;;1.83;;
41799;SDS011;27468;47.460;19.034;2023-03-12T15:02:08;2.58;;;1.40;;
41799;SDS011;27468;47.460;19.034;2023-03-12T15:04:37;1.95;;;1.30;;
41799;SDS011;27468;47.460;19.034;2023-03-12T15:07:04;2.03;;;1.48;;
41799;SDS011;27468;47.460;19.034;2023-03-12T15:09:33;3.28;;;1.58;;
41799;SDS011;27468;47.460;19.034;2023-03-12T15:12:01;2.40;;;1.40;;
41799;SDS011;27468;47.460;19.034;2023-03-12T15:14:29;2.15;;;1.35;;
41799;SDS011;27468;47.460;19.034;2023-03-12T15:16:58;2.47;;;1.50;;
41799;SDS011;27468;47.460;19.034;2023-03-12T15:19:38;3.10;;;1.50;;
41799;SDS011;27468;47.460;19.034;2023-03-12T15:22:04;3.15;;;1.77;;
41799;SDS011;27468;47.460;19.034;2023-03-12T15:24:38;2.90;;;1.67;;
41799;SDS011;27468;47.460;19.034;2023-03-12T15:27:21;3.15;;;1.60;;
41799;SDS011;27468;47.460;19.034;2023-03-12T15:29:49;2.50;;;1.75;;
41799;SDS011;27468;47.460;19.034;2023-03-12T15:32:17;2.28;;;1.73;;
41799;SDS011;27468;47.460;19.034;2023-03-12T15:34:44;3.90;;;1.70;;
41799;SDS011;27468;47.460;19.034;2023-03-12T15:39:43;2.42;;;1.50;;
41799;SDS011;27468;47.460;19.034;2023-03-12T15:44:57;3.38;;;1.88;;
41799;SDS011;27468;47.460;19.034;2023-03-12T15:47:27;3.25;;;1.75;;
41799;SDS011;27468;47.460;19.034;2023-03-12T15:49:57;2.72;;;2.05;;
41799;SDS011;27468;47.460;19.034;2023-03-12T15:52:32;4.65;;;1.60;;
41799;SDS011;27468;47.460;19.034;2023-03-12T15:57:47;2.15;;;1.15;;
41799;SDS011;27468;47.460;19.034;2023-03-12T16:00:19;2.92;;;1.45;;
41799;SDS011;27468;47.460;19.034;2023-03-12T16:02:59;3.42;;;1.80;;
41799;SDS011;27468;47.460;19.034;2023-03-12T16:07:58;3.50;;;1.40;;
41799;SDS011;27468;47.460;19.034;2023-03-12T16:10:27;2.50;;;1.60;;
41799;SDS011;27468;47.460;19.034;2023-03-12T16:12:56;2.85;;;2.05;;
41799;SDS011;27468;47.460;19.034;2023-03-12T16:15:32;2.42;;;1.33;;
41799;SDS011;27468;47.460;19.034;2023-03-12T16:18:00;2.60;;;1.42;;
41799;SDS011;27468;47.460;19.034;2023-03-12T16:20:25;3.63;;;1.60;;
41799;SDS011;27468;47.460;19.034;2023-03-12T16:22:51;3.05;;;1.48;;
41799;SDS011;27468;47.460;19.034;2023-03-12T16:25:17;4.82;;;2.45;;
41799;SDS011;27468;47.460;19.034;2023-03-12T16:27:46;3.08;;;1.60;;
41799;SDS011;27468;47.460;19.034;2023-03-12T16:30:27;2.83;;;1.50;;
41799;SDS011;27468;47.460;19.034;2023-03-12T16:32:57;3.65;;;1.63;;
41799;SDS011;27468;47.460;19.034;2023-03-12T16:35:24;2.70;;;1.50;;
41799;SDS011;27468;47.460;19.034;2023-03-12T16:37:52;3.13;;;1.70;;
41799;SDS011;27468;47.460;19.034;2023-03-12T16:40:18;4.13;;;1.80;;
41799;SDS011;27468;47.460;19.034;2023-03-12T16:42:45;2.15;;;1.40;;
41799;SDS011;27468;47.460;19.034;2023-03-12T16:45:13;3.15;;;1.42;;
41799;SDS011;27468;47.460;19.034;2023-03-12T16:47:40;3.42;;;1.92;;
41799;SDS011;27468;47.460;19.034;2023-03-12T16:50:12;3.17;;;1.60;;